createdAt,value
2017-03-31T00:00:16.671Z,19.72
2017-03-31T00:05:16.640Z,19.72
2017-03-31T00:10:16.312Z,19.79
2017-03-31T00:15:16.290Z,19.79
2017-03-31T00:20:16.572Z,19.7
2017-03-31T00:25:16.262Z,19.64
2017-03-31T00:30:16.526Z,19.72
2017-03-31T00:35:16.504Z,19.68
2017-03-31T00:40:16.484Z,19.74
2017-03-31T00:45:16.150Z,19.68
2017-03-31T00:50:16.157Z,19.75
2017-03-31T00:55:16.451Z,19.64
2017-03-31T01:00:16.456Z,19.64
2017-03-31T01:05:16.418Z,19.56
2017-03-31T01:10:16.380Z,19.64
2017-03-31T01:15:16.312Z,19.67
2017-03-31T01:20:16.286Z,19.67
2017-03-31T01:25:16.267Z,19.67
2017-03-31T01:30:15.954Z,19.56
2017-03-31T01:35:16.242Z,19.57
2017-03-31T01:40:16.200Z,19.61
2017-03-31T01:45:16.178Z,19.56
2017-03-31T01:50:16.167Z,19.55
2017-03-31T01:55:16.133Z,19.52
2017-03-31T02:00:16.112Z,19.57
2017-03-31T02:05:16.086Z,19.63
2017-03-31T02:10:16.064Z,19.53
2017-03-31T02:15:16.040Z,19.47
2017-03-31T02:20:15.709Z,19.49
2017-03-31T02:25:15.692Z,19.47
2017-03-31T02:30:16.022Z,19.42
2017-03-31T02:35:15.940Z,19.52
2017-03-31T02:40:15.967Z,19.45
2017-03-31T02:45:15.887Z,19.46
2017-03-31T02:50:15.875Z,19.42
2017-03-31T02:55:15.843Z,19.5
2017-03-31T03:00:15.828Z,19.46
2017-03-31T03:05:15.795Z,19.45
2017-03-31T03:10:15.471Z,19.45
2017-03-31T03:15:15.763Z,19.4
2017-03-31T03:20:15.730Z,19.42
2017-03-31T03:25:15.699Z,19.43
2017-03-31T03:30:15.692Z,19.43
2017-03-31T03:35:15.648Z,19.3
2017-03-31T03:40:15.670Z,19.27
2017-03-31T03:45:15.606Z,19.43
2017-03-31T03:50:15.694Z,19.43
2017-03-31T03:55:15.555Z,19.46
2017-03-31T04:00:15.687Z,19.34
2017-03-31T04:05:15.198Z,19.37
2017-03-31T04:10:15.483Z,19.32
2017-03-31T04:15:15.153Z,19.34
2017-03-31T04:20:15.433Z,19.34
2017-03-31T04:25:15.406Z,19.37
2017-03-31T04:30:15.385Z,19.25
2017-03-31T04:35:15.355Z,19.31
2017-03-31T04:40:15.331Z,19.23
2017-03-31T04:45:15.299Z,19.23
2017-03-31T04:50:15.283Z,19.27
2017-03-31T04:55:15.257Z,19.25
2017-03-31T05:00:15.236Z,19.3
2017-03-31T05:05:15.312Z,19.27
2017-03-31T05:10:15.185Z,19.2
2017-03-31T05:15:15.196Z,19.2
2017-03-31T05:20:14.823Z,19.19
2017-03-31T05:25:15.108Z,19.2
2017-03-31T05:30:15.087Z,19.25
2017-03-31T05:35:15.057Z,19.16
2017-03-31T05:40:15.038Z,19.19
2017-03-31T05:45:15.009Z,19.23
2017-03-31T05:50:14.681Z,19.2
2017-03-31T05:55:14.958Z,19.23
2017-03-31T06:00:14.932Z,19.23
2017-03-31T06:05:14.912Z,19.2
2017-03-31T06:10:14.878Z,19.19
2017-03-31T06:15:14.896Z,19.19
2017-03-31T06:20:14.856Z,19.2
2017-03-31T06:25:14.850Z,19.23
2017-03-31T06:30:14.802Z,19.25
2017-03-31T06:35:14.773Z,19.2
2017-03-31T06:40:14.728Z,19.2
2017-03-31T06:45:14.707Z,19.2
2017-03-31T06:50:14.697Z,19.23
2017-03-31T06:55:14.656Z,19.19
2017-03-31T07:00:14.658Z,19.16
2017-03-31T07:05:14.615Z,19.23
2017-03-31T07:10:14.586Z,19.24
2017-03-31T07:15:14.554Z,19.23
2017-03-31T07:20:14.567Z,19.19
2017-03-31T07:25:14.203Z,19.25
2017-03-31T07:30:14.582Z,19.27
2017-03-31T07:35:14.158Z,19.25
2017-03-31T07:40:14.476Z,19.2
2017-03-31T07:45:14.451Z,19.2
2017-03-31T07:50:14.450Z,19.24
2017-03-31T07:55:14.390Z,19.23
2017-03-31T08:00:14.039Z,19.3
2017-03-31T08:05:14.011Z,19.3
2017-03-31T08:10:14.291Z,19.35
2017-03-31T08:15:14.259Z,19.31
2017-03-31T08:20:14.261Z,19.27
2017-03-31T08:25:13.911Z,19.31
2017-03-31T08:30:14.193Z,19.31
2017-03-31T08:35:14.167Z,19.23
2017-03-31T08:40:14.143Z,19.25
2017-03-31T08:45:14.114Z,19.25
2017-03-31T08:50:14.119Z,19.4
2017-03-31T08:55:13.775Z,19.35
2017-03-31T09:00:13.735Z,19.34
2017-03-31T09:05:13.721Z,19.34
2017-03-31T09:10:14.053Z,19.37
2017-03-31T09:15:13.972Z,19.37
2017-03-31T09:20:13.945Z,19.43
2017-03-31T09:25:13.927Z,19.4
2017-03-31T09:30:13.903Z,19.43
2017-03-31T09:35:13.888Z,19.49
2017-03-31T09:40:13.559Z,19.42
2017-03-31T09:45:13.835Z,19.4
2017-03-31T09:50:13.807Z,19.38
2017-03-31T09:55:13.783Z,19.34
2017-03-31T10:00:13.757Z,19.45
2017-03-31T10:05:13.433Z,19.46
2017-03-31T10:10:13.705Z,19.52
2017-03-31T10:15:13.425Z,19.42
2017-03-31T10:20:13.673Z,19.49
2017-03-31T10:25:13.659Z,19.61
2017-03-31T10:30:13.611Z,19.55
2017-03-31T10:35:13.597Z,19.57
2017-03-31T10:40:13.576Z,19.65
2017-03-31T10:45:13.696Z,19.61
2017-03-31T10:50:13.259Z,19.67
2017-03-31T10:55:13.221Z,19.65
2017-03-31T11:00:13.493Z,19.7
2017-03-31T11:05:13.396Z,19.64
2017-03-31T11:10:13.435Z,19.64
2017-03-31T11:15:13.402Z,19.67
2017-03-31T11:20:13.076Z,19.68
2017-03-31T11:25:13.388Z,19.75
2017-03-31T11:30:13.342Z,19.78
2017-03-31T11:35:13.324Z,19.74
2017-03-31T11:40:13.294Z,19.74
2017-03-31T11:45:12.968Z,19.78
2017-03-31T11:50:13.276Z,19.8
2017-03-31T11:55:13.252Z,19.86
2017-03-31T12:00:13.216Z,19.89
2017-03-31T12:05:13.196Z,19.8
2017-03-31T12:10:13.398Z,19.95
2017-03-31T12:15:13.132Z,19.97
2017-03-31T12:20:13.110Z,19.95
2017-03-31T12:25:13.092Z,19.97
2017-03-31T12:30:13.078Z,20.04
2017-03-31T12:35:13.064Z,19.95
2017-03-31T12:40:13.025Z,19.98
2017-03-31T12:45:12.705Z,19.92
2017-03-31T12:50:12.989Z,19.87
2017-03-31T12:55:12.991Z,20.1
2017-03-31T13:00:12.890Z,20.18
2017-03-31T13:05:12.879Z,20.27
2017-03-31T13:10:12.843Z,20.26
2017-03-31T13:15:12.399Z,20.26
2017-03-31T13:20:12.352Z,20.29
2017-03-31T13:25:12.575Z,20.22
2017-03-31T13:30:12.235Z,20.23
2017-03-31T13:55:12.234Z,20.23
2017-03-31T14:00:12.169Z,20.23
2017-03-31T14:05:12.121Z,20.22
2017-03-31T14:10:12.065Z,20.26
2017-03-31T14:15:11.997Z,20.22
2017-03-31T14:20:11.943Z,20.18
2017-03-31T14:25:11.878Z,20.19
2017-03-31T14:30:11.824Z,20.15
2017-03-31T14:35:11.772Z,20.19
2017-03-31T14:40:11.400Z,20.16
2017-03-31T14:45:11.666Z,20.12
2017-03-31T14:50:11.602Z,20.12
2017-03-31T14:55:11.542Z,20.25
2017-03-31T15:00:11.482Z,20.2
2017-03-31T15:05:11.447Z,20.29
2017-03-31T15:10:11.350Z,20.38
2017-03-31T15:15:11.348Z,20.48
2017-03-31T15:20:11.238Z,20.44
2017-03-31T15:25:10.883Z,20.54
2017-03-31T15:30:10.846Z,20.48
2017-03-31T15:35:11.112Z,20.53
2017-03-31T15:40:10.805Z,20.63
2017-03-31T15:45:11.226Z,20.6
2017-03-31T15:50:10.906Z,20.6
2017-03-31T15:55:10.856Z,20.61
2017-03-31T16:00:10.610Z,20.61
2017-03-31T16:05:10.802Z,20.56
2017-03-31T16:10:10.491Z,20.56
2017-03-31T16:15:10.755Z,20.51
2017-03-31T16:20:10.751Z,20.41
2017-03-31T16:25:10.720Z,20.4
2017-03-31T16:30:10.708Z,20.34
2017-03-31T16:35:10.684Z,20.38
2017-03-31T16:40:10.667Z,20.3
2017-03-31T16:45:10.627Z,20.35
2017-03-31T16:50:10.637Z,20.29
2017-03-31T16:55:10.608Z,20.23
2017-03-31T17:00:10.678Z,20.26
2017-03-31T17:05:10.248Z,20.23
2017-03-31T17:10:10.214Z,20.2
2017-03-31T17:15:10.513Z,20.2
2017-03-31T17:20:10.471Z,20.18
2017-03-31T17:25:10.461Z,20.22
2017-03-31T17:30:10.131Z,20.23
2017-03-31T17:35:10.425Z,20.15
2017-03-31T17:40:10.393Z,20.16
2017-03-31T17:45:10.365Z,20.15
2017-03-31T17:50:10.351Z,20.18
2017-03-31T17:55:10.019Z,20.08
2017-03-31T18:00:10.308Z,20.2
2017-03-31T18:05:10.283Z,20.11
2017-03-31T18:10:10.273Z,20.11
2017-03-31T18:15:10.244Z,20.11
2017-03-31T18:20:09.929Z,20.08
2017-03-31T18:25:10.180Z,20.25
2017-03-31T18:30:09.825Z,20.38
2017-03-31T18:35:09.797Z,20.27
2017-03-31T18:40:10.078Z,20.22
2017-03-31T18:45:09.756Z,20.18
2017-03-31T18:50:10.029Z,20.15
2017-03-31T18:55:10.013Z,20.07
2017-03-31T19:00:09.984Z,20.16
2017-03-31T19:05:09.948Z,20.07
2017-03-31T19:10:09.950Z,20.1
2017-03-31T19:15:09.312Z,20.07
2017-03-31T19:20:09.898Z,20.07
2017-03-31T19:25:09.880Z,20.02
2017-03-31T19:30:09.854Z,20.01
2017-03-31T19:35:09.823Z,20.08
2017-03-31T19:40:09.882Z,20.01
2017-03-31T19:45:09.800Z,20.04
2017-03-31T19:50:09.770Z,20.07
2017-03-31T19:55:09.448Z,20.02
2017-03-31T20:00:09.720Z,19.93
2017-03-31T20:05:09.681Z,20.11
2017-03-31T20:10:09.692Z,20.1
2017-03-31T20:15:09.648Z,20
2017-03-31T20:20:09.621Z,20.04
2017-03-31T20:25:09.594Z,19.95
2017-03-31T20:30:09.578Z,19.95
2017-03-31T20:35:09.262Z,19.98
2017-03-31T20:40:09.308Z,19.98
2017-03-31T20:45:09.548Z,20.01
2017-03-31T20:50:09.200Z,20.01
2017-03-31T20:55:09.586Z,19.95
2017-03-31T21:00:09.474Z,19.97
2017-03-31T21:05:09.439Z,20
2017-03-31T21:10:09.407Z,20
2017-03-31T21:15:09.514Z,19.98
2017-03-31T21:20:09.342Z,20.01
2017-03-31T21:25:09.325Z,19.87
2017-03-31T21:30:09.309Z,19.93
2017-03-31T21:35:09.282Z,19.95
2017-03-31T21:40:09.254Z,19.92
2017-03-31T21:45:08.933Z,19.92
2017-03-31T21:50:09.201Z,19.92
2017-03-31T21:55:09.199Z,19.93
2017-03-31T22:00:09.158Z,19.86
2017-03-31T22:05:08.837Z,19.89
2017-03-31T22:10:09.130Z,19.87
2017-03-31T22:15:09.093Z,19.82
2017-03-31T22:20:09.073Z,19.8
2017-03-31T22:25:09.289Z,19.75
2017-03-31T22:30:09.084Z,19.75
2017-03-31T22:35:09.055Z,19.74
2017-03-31T22:40:08.974Z,19.7
2017-03-31T22:45:08.947Z,19.72
2017-03-31T22:50:08.918Z,19.71
2017-03-31T22:55:08.903Z,19.75
2017-03-31T23:00:08.880Z,19.74
2017-03-31T23:05:08.592Z,19.72
2017-03-31T23:10:08.821Z,19.7
2017-03-31T23:15:08.824Z,19.67
2017-03-31T23:20:08.782Z,19.63
2017-03-31T23:25:08.758Z,19.7
2017-03-31T23:30:08.724Z,19.65
2017-03-31T23:35:08.702Z,19.67
2017-03-31T23:40:08.707Z,19.67
2017-03-31T23:45:08.346Z,19.65
2017-03-31T23:50:08.629Z,19.57
2017-03-31T23:55:08.633Z,19.67
